createdAt,value
2023-10-06T00:02:32.264Z,1.75
2023-10-06T00:05:59.453Z,1.38
2023-10-06T00:09:30.454Z,1.92
2023-10-06T00:13:00.442Z,1.70
2023-10-06T00:16:28.331Z,1.50
2023-10-06T00:19:58.310Z,1.05
2023-10-06T00:23:29.001Z,1.00
2023-10-06T00:26:56.669Z,1.48
2023-10-06T00:30:22.992Z,1.33
2023-10-06T00:33:48.405Z,1.50
2023-10-06T00:37:17.525Z,1.35
2023-10-06T00:40:47.913Z,1.98
2023-10-06T00:44:14.035Z,1.63
2023-10-06T00:47:40.675Z,1.50
2023-10-06T00:51:08.164Z,1.70
2023-10-06T00:54:36.620Z,1.80
2023-10-06T00:58:02.993Z,1.83
2023-10-06T01:01:32.380Z,1.83
2023-10-06T01:04:58.293Z,1.50
2023-10-06T01:08:25.643Z,1.95
2023-10-06T01:11:56.816Z,2.17
2023-10-06T01:15:22.815Z,1.90
2023-10-06T01:18:52.128Z,1.70
2023-10-06T01:22:26.171Z,2.50
2023-10-06T01:25:55.890Z,1.60
2023-10-06T01:29:23.763Z,2.30
2023-10-06T01:32:52.597Z,2.15
2023-10-06T01:36:23.328Z,1.63
2023-10-06T01:39:52.972Z,2.05
2023-10-06T01:43:24.057Z,1.80
2023-10-06T01:46:54.907Z,2.20
2023-10-06T01:50:21.653Z,1.67
2023-10-06T01:53:51.431Z,1.75
2023-10-06T01:57:23.349Z,2.47
2023-10-06T02:00:49.847Z,2.40
2023-10-06T02:04:16.441Z,1.70
2023-10-06T02:07:46.129Z,2.13
2023-10-06T02:11:14.035Z,2.15
2023-10-06T02:14:42.654Z,1.95
2023-10-06T02:18:14.065Z,1.65
2023-10-06T02:21:45.727Z,2.05
2023-10-06T02:25:15.102Z,1.88
2023-10-06T02:28:45.292Z,1.63
2023-10-06T02:32:14.489Z,2.10
2023-10-06T02:35:46.365Z,2.38
2023-10-06T02:39:17.295Z,2.78
2023-10-06T02:42:48.895Z,2.17
2023-10-06T02:46:17.247Z,1.95
2023-10-06T02:49:50.499Z,2.00
2023-10-06T02:53:21.911Z,1.60
2023-10-06T02:56:48.583Z,2.33
2023-10-06T03:00:26.876Z,1.50
2023-10-06T03:03:54.117Z,1.50
2023-10-06T03:07:23.708Z,1.77
2023-10-06T03:10:51.170Z,1.95
2023-10-06T03:14:16.633Z,2.00
2023-10-06T03:17:42.602Z,1.80
2023-10-06T03:21:14.913Z,2.10
2023-10-06T03:24:55.191Z,1.95
2023-10-06T03:28:21.310Z,1.70
2023-10-06T03:31:49.456Z,2.08
2023-10-06T03:35:23.395Z,1.67
2023-10-06T03:38:56.763Z,1.60
2023-10-06T03:42:29.190Z,1.67
2023-10-06T03:49:21.621Z,2.20
2023-10-06T03:52:48.801Z,1.58
2023-10-06T03:56:14.900Z,1.88
2023-10-06T03:59:47.360Z,1.70
2023-10-06T04:03:15.304Z,1.85
2023-10-06T04:06:41.418Z,2.03
2023-10-06T04:10:09.392Z,2.08
2023-10-06T04:13:40.327Z,1.90
2023-10-06T04:17:13.846Z,1.90
2023-10-06T04:20:42.451Z,2.72
2023-10-06T04:24:08.295Z,1.55
2023-10-06T04:27:35.273Z,1.38
2023-10-06T04:31:02.750Z,1.60
2023-10-06T04:34:38.320Z,1.52
2023-10-06T04:38:07.421Z,1.77
2023-10-06T04:41:33.264Z,1.88
2023-10-06T04:44:58.606Z,2.00
2023-10-06T04:48:24.773Z,1.77
2023-10-06T04:51:52.790Z,2.67
2023-10-06T04:55:19.740Z,2.10
2023-10-06T04:58:45.499Z,1.70
2023-10-06T05:02:12.870Z,1.70
2023-10-06T05:05:39.943Z,1.90
2023-10-06T05:09:08.744Z,1.85
2023-10-06T05:12:34.269Z,2.63
2023-10-06T05:16:02.621Z,2.55
2023-10-06T05:19:28.435Z,1.80
2023-10-06T05:22:54.977Z,2.20
2023-10-06T05:26:23.192Z,2.20
2023-10-06T05:29:49.103Z,2.25
2023-10-06T05:33:15.933Z,2.50
2023-10-06T05:36:42.448Z,3.70
2023-10-06T05:40:13.496Z,3.08
2023-10-06T05:43:42.815Z,2.80
2023-10-06T05:47:09.892Z,3.40
2023-10-06T05:50:37.429Z,3.20
2023-10-06T05:54:04.046Z,3.45
2023-10-06T05:57:32.642Z,3.15
2023-10-06T06:01:07.580Z,4.53
2023-10-06T06:04:39.218Z,4.53
2023-10-06T06:08:07.328Z,3.70
2023-10-06T06:11:35.212Z,3.67
2023-10-06T06:15:01.384Z,4.78
2023-10-06T06:18:30.671Z,4.85
2023-10-06T06:21:58.447Z,5.32
2023-10-06T06:25:24.790Z,5.80
2023-10-06T06:28:50.576Z,4.97
2023-10-06T06:32:17.302Z,6.18
2023-10-06T06:35:46.336Z,5.53
2023-10-06T06:39:12.869Z,5.18
2023-10-06T06:42:38.251Z,5.50
2023-10-06T06:46:04.096Z,5.97
2023-10-06T06:49:29.617Z,6.35
2023-10-06T06:53:01.223Z,6.15
2023-10-06T06:56:30.830Z,6.60
2023-10-06T06:59:57.067Z,5.07
2023-10-06T07:03:22.618Z,4.65
2023-10-06T07:06:48.532Z,5.63
2023-10-06T07:10:21.467Z,5.10
2023-10-06T07:13:47.428Z,5.22
2023-10-06T07:17:12.915Z,4.93
2023-10-06T07:20:38.790Z,7.07
2023-10-06T07:24:04.901Z,7.95
2023-10-06T07:27:35.518Z,7.85
2023-10-06T07:31:00.889Z,8.07
2023-10-06T07:34:26.806Z,9.90
2023-10-06T07:37:53.877Z,9.75
2023-10-06T07:41:25.021Z,10.32
2023-10-06T07:44:53.314Z,11.68
2023-10-06T07:48:19.732Z,13.50
2023-10-06T07:51:46.819Z,11.85
2023-10-06T07:55:13.952Z,15.13
2023-10-06T07:58:39.855Z,12.75
2023-10-06T08:02:10.396Z,14.02
2023-10-06T08:05:36.050Z,13.50
2023-10-06T08:09:01.900Z,11.68
2023-10-06T08:12:28.670Z,12.43
2023-10-06T08:15:54.528Z,12.93
2023-10-06T08:19:22.898Z,13.85
2023-10-06T08:22:50.569Z,13.63
2023-10-06T08:26:16.141Z,11.55
2023-10-06T08:29:43.191Z,11.93
2023-10-06T08:33:10.686Z,12.85
2023-10-06T08:36:42.840Z,13.63
2023-10-06T08:40:11.351Z,12.65
2023-10-06T08:43:41.152Z,11.05
2023-10-06T08:47:20.378Z,13.45
2023-10-06T08:50:54.926Z,14.02
2023-10-06T08:54:23.471Z,12.32
2023-10-06T08:57:50.323Z,12.90
2023-10-06T09:01:16.891Z,11.90
2023-10-06T09:04:42.933Z,13.38
2023-10-06T09:08:09.190Z,11.90
2023-10-06T09:11:44.967Z,13.15
2023-10-06T09:15:11.089Z,10.93
2023-10-06T09:18:41.649Z,11.32
2023-10-06T09:22:08.948Z,10.95
2023-10-06T09:25:47.662Z,10.85
2023-10-06T09:29:16.066Z,8.90
2023-10-06T09:32:42.585Z,11.32
2023-10-06T09:36:12.687Z,10.40
2023-10-06T09:39:40.035Z,10.57
2023-10-06T09:43:06.976Z,9.43
2023-10-06T09:46:37.064Z,8.85
2023-10-06T09:50:04.234Z,8.25
2023-10-06T09:53:31.886Z,9.10
2023-10-06T09:56:58.877Z,7.97
2023-10-06T10:00:27.836Z,8.88
2023-10-06T10:03:56.652Z,7.93
2023-10-06T10:07:24.823Z,8.65
2023-10-06T10:10:51.338Z,8.30
2023-10-06T10:14:38.282Z,7.50
2023-10-06T10:18:06.005Z,7.65
2023-10-06T10:21:36.465Z,7.65
2023-10-06T10:25:23.918Z,7.18
2023-10-06T10:29:07.049Z,7.47
2023-10-06T10:32:44.741Z,6.55
2023-10-06T10:36:28.607Z,7.38
2023-10-06T10:39:58.127Z,8.13
2023-10-06T10:43:25.025Z,7.90
2023-10-06T10:46:54.007Z,7.60
2023-10-06T10:50:21.522Z,7.82
2023-10-06T10:53:52.436Z,9.80
2023-10-06T10:57:24.390Z,8.88
2023-10-06T11:01:05.166Z,9.45
2023-10-06T11:04:37.024Z,7.45
2023-10-06T11:08:06.998Z,8.18
2023-10-06T11:11:36.543Z,8.50
2023-10-06T11:15:15.293Z,7.85
2023-10-06T11:18:42.716Z,8.55
2023-10-06T11:22:15.080Z,7.03
2023-10-06T11:25:50.555Z,7.88
2023-10-06T11:29:17.091Z,6.35
2023-10-06T11:32:46.358Z,5.38
2023-10-06T11:36:12.717Z,6.43
2023-10-06T11:39:39.135Z,5.72
2023-10-06T11:43:14.051Z,5.88
2023-10-06T11:46:51.343Z,5.95
2023-10-06T11:50:32.957Z,6.10
2023-10-06T11:54:04.933Z,5.23
2023-10-06T11:57:46.722Z,5.32
2023-10-06T12:01:27.335Z,5.13
2023-10-06T12:04:53.088Z,5.93
2023-10-06T12:08:22.117Z,6.25
2023-10-06T12:11:48.132Z,4.90
2023-10-06T12:15:14.587Z,6.00
2023-10-06T12:18:44.671Z,5.13
2023-10-06T12:22:14.808Z,5.10
2023-10-06T12:25:45.699Z,4.78
2023-10-06T12:29:18.945Z,4.70
2023-10-06T12:32:47.046Z,4.78
2023-10-06T12:36:14.137Z,4.22
2023-10-06T12:39:40.965Z,5.88
2023-10-06T12:43:11.223Z,4.85
2023-10-06T12:46:38.917Z,4.50
2023-10-06T12:50:07.803Z,4.82
2023-10-06T12:53:37.722Z,4.30
2023-10-06T12:57:06.035Z,4.50
2023-10-06T13:00:34.305Z,6.22
2023-10-06T13:04:02.933Z,5.53
2023-10-06T13:07:32.629Z,4.07
2023-10-06T13:11:05.134Z,4.30
2023-10-06T13:14:32.722Z,5.13
2023-10-06T13:18:01.904Z,5.13
2023-10-06T13:21:30.779Z,4.63
2023-10-06T13:24:57.844Z,5.13
2023-10-06T13:28:23.660Z,5.20
2023-10-06T13:31:50.040Z,4.65
2023-10-06T13:35:20.874Z,4.30
2023-10-06T13:38:47.599Z,4.50
2023-10-06T13:42:16.800Z,4.78
2023-10-06T13:45:44.679Z,4.50
2023-10-06T13:49:10.198Z,3.90
2023-10-06T13:52:39.026Z,4.45
2023-10-06T13:56:04.653Z,3.72
2023-10-06T13:59:31.527Z,3.83
2023-10-06T14:02:57.868Z,2.97
2023-10-06T14:06:27.267Z,3.55
2023-10-06T14:09:58.219Z,3.67
2023-10-06T14:13:27.662Z,2.75
2023-10-06T14:16:55.793Z,3.28
2023-10-06T14:20:31.232Z,2.33
2023-10-06T14:23:58.960Z,2.83
2023-10-06T14:27:28.640Z,2.53
2023-10-06T14:30:57.583Z,3.30
2023-10-06T14:35:00.666Z,3.10
2023-10-06T14:38:41.318Z,4.63
2023-10-06T14:42:19.772Z,4.65
2023-10-06T14:46:03.633Z,4.40
2023-10-06T14:49:29.716Z,3.50
2023-10-06T14:52:55.708Z,4.05
2023-10-06T14:56:23.506Z,3.42
2023-10-06T14:59:51.487Z,3.78
2023-10-06T15:03:23.694Z,5.03
2023-10-06T15:06:49.273Z,4.30
2023-10-06T15:10:19.750Z,4.75
2023-10-06T15:13:48.358Z,4.53
2023-10-06T15:17:16.013Z,4.07
2023-10-06T15:20:44.372Z,3.97
2023-10-06T15:24:12.254Z,4.45
2023-10-06T15:27:38.086Z,5.07
2023-10-06T15:31:06.086Z,5.30
2023-10-06T15:34:35.272Z,4.70
2023-10-06T15:38:05.217Z,5.85
2023-10-06T15:41:34.364Z,6.80
2023-10-06T15:45:01.610Z,7.43
2023-10-06T15:48:29.712Z,7.20
2023-10-06T15:51:55.485Z,7.55
2023-10-06T15:55:23.573Z,7.13
2023-10-06T15:58:49.867Z,7.30
2023-10-06T16:02:15.499Z,6.38
2023-10-06T16:05:42.851Z,6.15
2023-10-06T16:09:11.895Z,6.07
2023-10-06T16:12:40.709Z,6.20
2023-10-06T16:16:12.275Z,5.63
2023-10-06T16:19:40.625Z,5.82
2023-10-06T16:23:07.722Z,4.25
2023-10-06T16:26:33.695Z,5.35
2023-10-06T16:30:01.892Z,4.85
2023-10-06T16:33:28.160Z,6.30
2023-10-06T16:36:54.026Z,5.40
2023-10-06T16:40:19.855Z,4.95
2023-10-06T16:43:45.967Z,5.10
2023-10-06T16:47:14.495Z,5.18
2023-10-06T16:50:43.504Z,5.43
2023-10-06T16:54:11.488Z,4.00
2023-10-06T16:57:37.230Z,4.22
2023-10-06T17:01:09.390Z,3.88
2023-10-06T17:04:41.348Z,3.67
2023-10-06T17:08:07.472Z,3.17
2023-10-06T17:11:32.979Z,2.85
2023-10-06T17:14:59.141Z,3.05
2023-10-06T17:18:24.632Z,2.92
2023-10-06T17:21:54.509Z,3.70
2023-10-06T17:25:21.269Z,2.92
2023-10-06T17:28:47.547Z,3.90
2023-10-06T17:32:14.836Z,4.10
2023-10-06T17:35:40.701Z,3.63
2023-10-06T17:39:09.281Z,4.88
2023-10-06T17:42:36.349Z,3.85
2023-10-06T17:46:01.922Z,4.28
2023-10-06T17:49:29.120Z,4.20
2023-10-06T17:52:54.574Z,4.57
2023-10-06T17:56:23.061Z,4.32
2023-10-06T17:59:49.309Z,4.35
2023-10-06T18:03:15.216Z,4.45
2023-10-06T18:06:41.039Z,3.63
2023-10-06T18:10:09.854Z,3.88
2023-10-06T18:13:40.485Z,3.53
2023-10-06T18:17:08.142Z,4.18
2023-10-06T18:20:33.537Z,5.00
2023-10-06T18:23:59.983Z,3.55
2023-10-06T18:27:26.760Z,4.57
2023-10-06T18:30:55.218Z,3.67
2023-10-06T18:34:20.641Z,3.83
2023-10-06T18:37:46.546Z,4.20
2023-10-06T18:41:14.150Z,4.15
2023-10-06T18:44:40.124Z,4.05
2023-10-06T18:48:08.700Z,4.47
2023-10-06T18:51:34.650Z,5.78
2023-10-06T18:55:00.063Z,6.50
2023-10-06T18:58:28.539Z,7.60
2023-10-06T19:01:55.573Z,7.00
2023-10-06T19:05:24.140Z,8.70
2023-10-06T19:08:51.995Z,7.60
2023-10-06T19:12:18.673Z,6.20
2023-10-06T19:15:47.784Z,6.07
2023-10-06T19:19:13.632Z,5.53
2023-10-06T19:22:41.905Z,6.22
2023-10-06T19:26:10.030Z,5.72
2023-10-06T19:29:35.744Z,5.93
2023-10-06T19:33:01.607Z,6.22
2023-10-06T19:36:27.254Z,6.15
2023-10-06T19:39:56.671Z,5.60
2023-10-06T19:43:23.121Z,5.63
2023-10-06T19:46:49.509Z,5.05
2023-10-06T19:50:16.568Z,5.97
2023-10-06T19:53:42.644Z,5.75
2023-10-06T19:57:10.672Z,4.53
2023-10-06T20:00:36.590Z,4.30
2023-10-06T20:04:02.501Z,6.63
2023-10-06T20:07:28.389Z,4.88
2023-10-06T20:10:57.491Z,4.15
2023-10-06T20:14:27.187Z,4.60
2023-10-06T20:17:52.761Z,4.10
2023-10-06T20:21:19.225Z,3.95
2023-10-06T20:24:44.683Z,4.35
2023-10-06T20:28:11.517Z,3.80
2023-10-06T20:31:39.857Z,4.07
2023-10-06T20:35:05.715Z,3.25
2023-10-06T20:38:34.834Z,4.00
2023-10-06T20:42:00.893Z,3.63
2023-10-06T20:45:28.246Z,3.50
2023-10-06T20:48:57.446Z,4.05
2023-10-06T20:52:22.997Z,3.72
2023-10-06T20:55:48.809Z,3.45
2023-10-06T20:59:14.820Z,3.53
2023-10-06T21:02:41.373Z,3.47
2023-10-06T21:06:10.975Z,3.38
2023-10-06T21:09:36.841Z,2.75
2023-10-06T21:13:02.234Z,3.20
2023-10-06T21:16:28.488Z,3.08
2023-10-06T21:19:54.995Z,2.90
2023-10-06T21:23:30.716Z,2.95
2023-10-06T21:26:56.291Z,2.88
2023-10-06T21:30:23.699Z,2.70
2023-10-06T21:33:49.330Z,2.58
2023-10-06T21:37:16.956Z,2.72
2023-10-06T21:40:46.054Z,3.30
2023-10-06T21:44:12.038Z,2.55
2023-10-06T21:47:37.837Z,2.88
2023-10-06T21:51:04.234Z,2.20
2023-10-06T21:54:32.181Z,2.45
2023-10-06T21:58:01.033Z,3.58
2023-10-06T22:01:27.741Z,2.40
2023-10-06T22:04:54.396Z,2.35
2023-10-06T22:08:19.896Z,2.28
2023-10-06T22:11:49.336Z,2.53
2023-10-06T22:15:17.490Z,2.75
2023-10-06T22:18:43.856Z,2.50
2023-10-06T22:22:09.318Z,2.28
2023-10-06T22:25:36.361Z,2.40
2023-10-06T22:29:04.243Z,3.30
2023-10-06T22:32:32.757Z,2.90
2023-10-06T22:35:58.317Z,2.67
2023-10-06T22:39:24.536Z,2.35
2023-10-06T22:42:50.358Z,2.38
2023-10-06T22:46:16.266Z,2.03
2023-10-06T22:49:44.629Z,3.00
2023-10-06T22:53:11.097Z,2.50
2023-10-06T22:56:36.512Z,3.05
2023-10-06T23:00:03.228Z,2.92
2023-10-06T23:03:31.036Z,2.85
2023-10-06T23:07:01.264Z,2.35
2023-10-06T23:10:28.477Z,2.75
2023-10-06T23:13:54.777Z,2.60
2023-10-06T23:17:20.391Z,2.45
2023-10-06T23:20:47.655Z,2.53
2023-10-06T23:24:18.484Z,2.65
2023-10-06T23:27:44.680Z,2.83
2023-10-06T23:31:10.716Z,3.63
2023-10-06T23:34:39.217Z,2.00
2023-10-06T23:38:08.309Z,2.20
2023-10-06T23:41:38.852Z,1.92
2023-10-06T23:45:06.503Z,2.58
2023-10-06T23:48:33.237Z,3.08
2023-10-06T23:51:58.749Z,2.75
2023-10-06T23:55:25.146Z,2.55
2023-10-06T23:58:54.393Z,3.30
